sensor_id;sensor_type;location;lat;lon;timestamp;temperature;humidity
33815;DHT22;20121;51.910;8.406;2022-09-09T00:01:59;15.40;99.90
33815;DHT22;20121;51.910;8.406;2022-09-09T00:07:05;15.30;99.90
33815;DHT22;20121;51.910;8.406;2022-09-09T00:09:48;15.40;99.90
33815;DHT22;20121;51.910;8.406;2022-09-09T00:12:40;15.40;99.90
33815;DHT22;20121;51.910;8.406;2022-09-09T00:15:08;15.40;99.90
33815;DHT22;20121;51.910;8.406;2022-09-09T00:20:13;15.90;99.90
33815;DHT22;20121;51.910;8.406;2022-09-09T00:22:47;15.70;99.90
33815;DHT22;20121;51.910;8.406;2022-09-09T00:26:13;15.40;99.90
33815;DHT22;20121;51.910;8.406;2022-09-09T00:28:22;15.40;99.90
33815;DHT22;20121;51.910;8.406;2022-09-09T00:30:48;15.40;99.90
33815;DHT22;20121;51.910;8.406;2022-09-09T00:33:17;15.20;99.90
33815;DHT22;20121;51.910;8.406;2022-09-09T00:35:47;15.50;99.90
33815;DHT22;20121;51.910;8.406;2022-09-09T00:38:16;15.30;99.90
33815;DHT22;20121;51.910;8.406;2022-09-09T00:40:58;15.20;99.90
33815;DHT22;20121;51.910;8.406;2022-09-09T00:43:29;15.20;99.90
33815;DHT22;20121;51.910;8.406;2022-09-09T00:48:44;15.30;99.90
33815;DHT22;20121;51.910;8.406;2022-09-09T00:57:25;15.70;99.90
33815;DHT22;20121;51.910;8.406;2022-09-09T01:08:01;15.40;99.90
33815;DHT22;20121;51.910;8.406;2022-09-09T01:13:11;15.50;99.90
33815;DHT22;20121;51.910;8.406;2022-09-09T01:15:41;15.30;99.90
33815;DHT22;20121;51.910;8.406;2022-09-09T01:18:11;15.50;99.90
33815;DHT22;20121;51.910;8.406;2022-09-09T01:28:41;15.30;99.90
33815;DHT22;20121;51.910;8.406;2022-09-09T01:31:10;15.30;99.90
33815;DHT22;20121;51.910;8.406;2022-09-09T01:33:37;15.30;99.90
33815;DHT22;20121;51.910;8.406;2022-09-09T01:36:07;15.40;99.90
33815;DHT22;20121;51.910;8.406;2022-09-09T01:38:34;15.40;99.90
33815;DHT22;20121;51.910;8.406;2022-09-09T01:41:01;15.60;99.90
33815;DHT22;20121;51.910;8.406;2022-09-09T01:43:27;15.30;99.90
33815;DHT22;20121;51.910;8.406;2022-09-09T01:45:56;15.60;99.90
33815;DHT22;20121;51.910;8.406;2022-09-09T01:48:23;15.60;99.90
33815;DHT22;20121;51.910;8.406;2022-09-09T01:50:50;15.60;99.90
33815;DHT22;20121;51.910;8.406;2022-09-09T01:53:18;15.50;99.90
33815;DHT22;20121;51.910;8.406;2022-09-09T01:59:07;16.40;99.90
33815;DHT22;20121;51.910;8.406;2022-09-09T02:01:43;15.30;99.90
33815;DHT22;20121;51.910;8.406;2022-09-09T02:07:42;15.30;99.90
33815;DHT22;20121;51.910;8.406;2022-09-09T02:10:22;15.30;99.90
33815;DHT22;20121;51.910;8.406;2022-09-09T02:12:53;15.20;99.90
33815;DHT22;20121;51.910;8.406;2022-09-09T02:15:32;15.40;99.90
33815;DHT22;20121;51.910;8.406;2022-09-09T02:18:01;15.30;99.90
33815;DHT22;20121;51.910;8.406;2022-09-09T02:20:31;15.40;99.90
33815;DHT22;20121;51.910;8.406;2022-09-09T02:22:59;15.20;99.90
33815;DHT22;20121;51.910;8.406;2022-09-09T02:25:28;15.20;99.90
33815;DHT22;20121;51.910;8.406;2022-09-09T02:27:55;15.20;99.90
33815;DHT22;20121;51.910;8.406;2022-09-09T02:30:23;15.40;99.90
33815;DHT22;20121;51.910;8.406;2022-09-09T02:32:50;15.20;99.90
33815;DHT22;20121;51.910;8.406;2022-09-09T02:35:21;15.60;99.90
33815;DHT22;20121;51.910;8.406;2022-09-09T02:37:51;15.30;99.90
33815;DHT22;20121;51.910;8.406;2022-09-09T02:40:18;15.30;99.90
33815;DHT22;20121;51.910;8.406;2022-09-09T02:42:46;15.30;99.90
33815;DHT22;20121;51.910;8.406;2022-09-09T02:45:19;15.20;99.90
33815;DHT22;20121;51.910;8.406;2022-09-09T02:48:02;15.30;99.90
33815;DHT22;20121;51.910;8.406;2022-09-09T02:50:35;15.30;99.90
33815;DHT22;20121;51.910;8.406;2022-09-09T02:53:17;15.20;99.90
33815;DHT22;20121;51.910;8.406;2022-09-09T02:55:58;15.30;99.90
33815;DHT22;20121;51.910;8.406;2022-09-09T02:58:26;15.40;99.90
33815;DHT22;20121;51.910;8.406;2022-09-09T03:00:52;15.70;99.90
33815;DHT22;20121;51.910;8.406;2022-09-09T03:03:18;15.50;99.90
33815;DHT22;20121;51.910;8.406;2022-09-09T03:05:45;15.30;99.90
33815;DHT22;20121;51.910;8.406;2022-09-09T03:08:12;15.60;99.90
33815;DHT22;20121;51.910;8.406;2022-09-09T03:10:38;15.50;99.90
33815;DHT22;20121;51.910;8.406;2022-09-09T03:13:04;15.30;99.90
33815;DHT22;20121;51.910;8.406;2022-09-09T03:15:32;15.40;99.90
33815;DHT22;20121;51.910;8.406;2022-09-09T03:17:58;15.40;99.90
33815;DHT22;20121;51.910;8.406;2022-09-09T03:20:28;15.30;99.90
33815;DHT22;20121;51.910;8.406;2022-09-09T03:22:54;15.80;99.90
33815;DHT22;20121;51.910;8.406;2022-09-09T03:25:23;15.40;99.90
33815;DHT22;20121;51.910;8.406;2022-09-09T03:27:50;15.40;99.90
33815;DHT22;20121;51.910;8.406;2022-09-09T03:30:24;15.50;99.90
33815;DHT22;20121;51.910;8.406;2022-09-09T03:32:50;15.30;99.90
33815;DHT22;20121;51.910;8.406;2022-09-09T03:35:16;16.20;99.90
33815;DHT22;20121;51.910;8.406;2022-09-09T03:37:42;15.40;99.90
33815;DHT22;20121;51.910;8.406;2022-09-09T03:40:08;15.40;99.90
33815;DHT22;20121;51.910;8.406;2022-09-09T03:42:35;15.40;99.90
33815;DHT22;20121;51.910;8.406;2022-09-09T03:45:06;15.40;99.90
33815;DHT22;20121;51.910;8.406;2022-09-09T03:47:32;15.40;99.90
33815;DHT22;20121;51.910;8.406;2022-09-09T03:49:58;15.40;99.90
33815;DHT22;20121;51.910;8.406;2022-09-09T03:52:24;15.60;99.90
33815;DHT22;20121;51.910;8.406;2022-09-09T03:54:52;15.60;99.90
33815;DHT22;20121;51.910;8.406;2022-09-09T03:57:18;15.30;99.90
33815;DHT22;20121;51.910;8.406;2022-09-09T03:59:44;15.40;99.90
33815;DHT22;20121;51.910;8.406;2022-09-09T04:02:10;15.60;99.90
33815;DHT22;20121;51.910;8.406;2022-09-09T04:04:36;15.50;99.90
33815;DHT22;20121;51.910;8.406;2022-09-09T04:07:02;15.40;99.90
33815;DHT22;20121;51.910;8.406;2022-09-09T04:09:28;15.40;99.90
33815;DHT22;20121;51.910;8.406;2022-09-09T04:11:53;15.40;99.90
33815;DHT22;20121;51.910;8.406;2022-09-09T04:14:20;15.60;99.90
33815;DHT22;20121;51.910;8.406;2022-09-09T04:16:45;15.40;99.90
33815;DHT22;20121;51.910;8.406;2022-09-09T04:19:12;15.50;99.90
33815;DHT22;20121;51.910;8.406;2022-09-09T04:21:40;15.40;99.90
33815;DHT22;20121;51.910;8.406;2022-09-09T04:24:07;15.60;99.90
33815;DHT22;20121;51.910;8.406;2022-09-09T04:26:33;15.50;99.90
33815;DHT22;20121;51.910;8.406;2022-09-09T04:28:59;15.40;99.90
33815;DHT22;20121;51.910;8.406;2022-09-09T04:31:24;15.70;99.90
33815;DHT22;20121;51.910;8.406;2022-09-09T04:33:51;15.50;99.90
33815;DHT22;20121;51.910;8.406;2022-09-09T04:36:17;15.50;99.90
33815;DHT22;20121;51.910;8.406;2022-09-09T04:38:45;15.60;99.90
33815;DHT22;20121;51.910;8.406;2022-09-09T04:41:11;15.50;99.90
33815;DHT22;20121;51.910;8.406;2022-09-09T04:43:38;15.60;99.90
33815;DHT22;20121;51.910;8.406;2022-09-09T04:46:04;15.60;99.90
33815;DHT22;20121;51.910;8.406;2022-09-09T04:48:30;15.30;99.90
33815;DHT22;20121;51.910;8.406;2022-09-09T04:51:07;15.30;99.90
33815;DHT22;20121;51.910;8.406;2022-09-09T04:53:35;15.30;99.90
33815;DHT22;20121;51.910;8.406;2022-09-09T04:56:13;15.40;99.90
33815;DHT22;20121;51.910;8.406;2022-09-09T04:58:40;15.20;99.90
33815;DHT22;20121;51.910;8.406;2022-09-09T05:01:14;15.40;99.90
33815;DHT22;20121;51.910;8.406;2022-09-09T05:03:40;15.20;99.90
33815;DHT22;20121;51.910;8.406;2022-09-09T05:06:11;15.50;99.90
33815;DHT22;20121;51.910;8.406;2022-09-09T05:08:38;15.10;99.90
33815;DHT22;20121;51.910;8.406;2022-09-09T05:11:19;15.30;99.90
33815;DHT22;20121;51.910;8.406;2022-09-09T05:13:46;15.30;99.90
33815;DHT22;20121;51.910;8.406;2022-09-09T05:16:13;15.40;99.90
33815;DHT22;20121;51.910;8.406;2022-09-09T05:18:39;15.30;99.90
33815;DHT22;20121;51.910;8.406;2022-09-09T05:21:05;15.30;99.90
33815;DHT22;20121;51.910;8.406;2022-09-09T05:23:32;15.30;99.90
33815;DHT22;20121;51.910;8.406;2022-09-09T05:25:59;15.30;99.90
33815;DHT22;20121;51.910;8.406;2022-09-09T05:28:26;15.40;99.90
33815;DHT22;20121;51.910;8.406;2022-09-09T05:31:00;15.30;99.90
33815;DHT22;20121;51.910;8.406;2022-09-09T05:33:29;15.50;99.90
33815;DHT22;20121;51.910;8.406;2022-09-09T05:35:59;15.40;99.90
33815;DHT22;20121;51.910;8.406;2022-09-09T05:38:25;15.40;99.90
33815;DHT22;20121;51.910;8.406;2022-09-09T05:40:51;15.40;99.90
33815;DHT22;20121;51.910;8.406;2022-09-09T05:43:18;15.30;99.90
33815;DHT22;20121;51.910;8.406;2022-09-09T05:45:46;15.40;99.90
33815;DHT22;20121;51.910;8.406;2022-09-09T05:48:13;15.50;99.90
33815;DHT22;20121;51.910;8.406;2022-09-09T05:50:40;15.50;99.90
33815;DHT22;20121;51.910;8.406;2022-09-09T05:53:06;15.50;99.90
33815;DHT22;20121;51.910;8.406;2022-09-09T05:55:32;15.50;99.90
33815;DHT22;20121;51.910;8.406;2022-09-09T05:57:57;15.90;99.90
33815;DHT22;20121;51.910;8.406;2022-09-09T06:00:23;15.90;99.90
33815;DHT22;20121;51.910;8.406;2022-09-09T06:02:52;15.90;99.90
33815;DHT22;20121;51.910;8.406;2022-09-09T06:05:19;15.80;99.90
33815;DHT22;20121;51.910;8.406;2022-09-09T06:07:45;15.80;99.90
33815;DHT22;20121;51.910;8.406;2022-09-09T06:10:11;15.90;99.90
33815;DHT22;20121;51.910;8.406;2022-09-09T06:12:40;16.10;99.90
33815;DHT22;20121;51.910;8.406;2022-09-09T06:15:06;16.00;99.90
33815;DHT22;20121;51.910;8.406;2022-09-09T06:17:32;16.00;99.90
33815;DHT22;20121;51.910;8.406;2022-09-09T06:19:58;16.00;99.90
33815;DHT22;20121;51.910;8.406;2022-09-09T06:22:23;16.10;99.90
33815;DHT22;20121;51.910;8.406;2022-09-09T06:24:49;15.90;99.90
33815;DHT22;20121;51.910;8.406;2022-09-09T06:27:16;16.30;99.90
33815;DHT22;20121;51.910;8.406;2022-09-09T06:29:42;16.40;99.90
33815;DHT22;20121;51.910;8.406;2022-09-09T06:32:07;16.50;99.90
33815;DHT22;20121;51.910;8.406;2022-09-09T06:34:34;16.50;99.90
33815;DHT22;20121;51.910;8.406;2022-09-09T06:37:01;16.50;99.90
33815;DHT22;20121;51.910;8.406;2022-09-09T06:39:26;16.40;99.90
33815;DHT22;20121;51.910;8.406;2022-09-09T06:41:52;16.60;99.90
33815;DHT22;20121;51.910;8.406;2022-09-09T06:44:19;16.40;99.90
33815;DHT22;20121;51.910;8.406;2022-09-09T06:46:45;16.60;99.90
33815;DHT22;20121;51.910;8.406;2022-09-09T06:49:13;16.50;99.90
33815;DHT22;20121;51.910;8.406;2022-09-09T06:51:39;16.70;99.90
33815;DHT22;20121;51.910;8.406;2022-09-09T06:54:08;16.50;99.90
33815;DHT22;20121;51.910;8.406;2022-09-09T06:56:40;16.70;99.90
33815;DHT22;20121;51.910;8.406;2022-09-09T06:59:09;16.60;99.90
33815;DHT22;20121;51.910;8.406;2022-09-09T07:01:37;16.60;99.90
33815;DHT22;20121;51.910;8.406;2022-09-09T07:04:04;16.70;99.90
33815;DHT22;20121;51.910;8.406;2022-09-09T07:06:34;16.70;99.90
33815;DHT22;20121;51.910;8.406;2022-09-09T07:09:02;16.70;99.90
33815;DHT22;20121;51.910;8.406;2022-09-09T07:11:31;16.80;99.90
33815;DHT22;20121;51.910;8.406;2022-09-09T07:13:59;16.80;99.90
33815;DHT22;20121;51.910;8.406;2022-09-09T07:16:25;16.70;99.90
33815;DHT22;20121;51.910;8.406;2022-09-09T07:18:53;16.70;99.90
33815;DHT22;20121;51.910;8.406;2022-09-09T07:21:23;17.10;99.90
33815;DHT22;20121;51.910;8.406;2022-09-09T07:23:50;16.80;99.90
33815;DHT22;20121;51.910;8.406;2022-09-09T07:26:17;16.90;99.90
33815;DHT22;20121;51.910;8.406;2022-09-09T07:28:45;16.90;99.90
33815;DHT22;20121;51.910;8.406;2022-09-09T07:31:16;17.00;99.90
33815;DHT22;20121;51.910;8.406;2022-09-09T07:33:43;17.10;99.90
33815;DHT22;20121;51.910;8.406;2022-09-09T07:36:26;17.10;99.90
33815;DHT22;20121;51.910;8.406;2022-09-09T07:38:58;17.20;99.90
33815;DHT22;20121;51.910;8.406;2022-09-09T07:41:29;17.40;99.90
33815;DHT22;20121;51.910;8.406;2022-09-09T07:43:55;17.30;99.90
33815;DHT22;20121;51.910;8.406;2022-09-09T07:46:24;17.40;99.90
33815;DHT22;20121;51.910;8.406;2022-09-09T07:48:55;17.40;99.90
33815;DHT22;20121;51.910;8.406;2022-09-09T07:51:24;17.50;99.90
33815;DHT22;20121;51.910;8.406;2022-09-09T07:53:56;17.70;99.90
33815;DHT22;20121;51.910;8.406;2022-09-09T07:56:24;17.80;99.90
33815;DHT22;20121;51.910;8.406;2022-09-09T07:58:51;17.80;99.90
33815;DHT22;20121;51.910;8.406;2022-09-09T08:01:29;17.80;99.90
33815;DHT22;20121;51.910;8.406;2022-09-09T08:04:03;17.90;99.90
33815;DHT22;20121;51.910;8.406;2022-09-09T08:06:37;18.10;99.90
33815;DHT22;20121;51.910;8.406;2022-09-09T08:09:04;18.20;99.90
33815;DHT22;20121;51.910;8.406;2022-09-09T08:11:30;18.40;99.90
33815;DHT22;20121;51.910;8.406;2022-09-09T08:13:58;18.50;99.90
33815;DHT22;20121;51.910;8.406;2022-09-09T08:16:30;18.80;99.90
33815;DHT22;20121;51.910;8.406;2022-09-09T08:18:56;18.80;99.90
33815;DHT22;20121;51.910;8.406;2022-09-09T08:21:27;19.00;99.90
33815;DHT22;20121;51.910;8.406;2022-09-09T08:23:55;19.30;99.90
33815;DHT22;20121;51.910;8.406;2022-09-09T08:26:30;19.30;99.90
33815;DHT22;20121;51.910;8.406;2022-09-09T08:28:57;19.40;99.90
33815;DHT22;20121;51.910;8.406;2022-09-09T08:31:26;19.40;99.90
33815;DHT22;20121;51.910;8.406;2022-09-09T08:33:54;19.40;99.90
33815;DHT22;20121;51.910;8.406;2022-09-09T08:36:22;19.50;99.90
33815;DHT22;20121;51.910;8.406;2022-09-09T08:38:53;19.30;99.90
33815;DHT22;20121;51.910;8.406;2022-09-09T08:52:56;20.50;99.90
33815;DHT22;20121;51.910;8.406;2022-09-09T08:58:20;20.20;99.90
33815;DHT22;20121;51.910;8.406;2022-09-09T09:07:53;19.30;99.90
33815;DHT22;20121;51.910;8.406;2022-09-09T09:12:47;19.70;99.90
33815;DHT22;20121;51.910;8.406;2022-09-09T09:15:26;19.70;99.90
33815;DHT22;20121;51.910;8.406;2022-09-09T09:17:55;19.70;99.90
33815;DHT22;20121;51.910;8.406;2022-09-09T09:20:40;19.70;99.90
33815;DHT22;20121;51.910;8.406;2022-09-09T09:23:21;19.90;99.90
33815;DHT22;20121;51.910;8.406;2022-09-09T09:25:47;20.30;99.90
33815;DHT22;20121;51.910;8.406;2022-09-09T09:28:21;20.70;99.90
33815;DHT22;20121;51.910;8.406;2022-09-09T09:30:59;21.10;99.90
33815;DHT22;20121;51.910;8.406;2022-09-09T09:36:09;21.80;99.90
33815;DHT22;20121;51.910;8.406;2022-09-09T09:38:36;22.20;99.90
33815;DHT22;20121;51.910;8.406;2022-09-09T09:41:02;22.30;99.90
33815;DHT22;20121;51.910;8.406;2022-09-09T09:43:30;22.50;99.90
33815;DHT22;20121;51.910;8.406;2022-09-09T09:45:56;22.50;99.40
33815;DHT22;20121;51.910;8.406;2022-09-09T09:48:26;22.30;99.90
33815;DHT22;20121;51.910;8.406;2022-09-09T09:51:01;22.30;98.30
33815;DHT22;20121;51.910;8.406;2022-09-09T09:53:33;22.20;98.40
33815;DHT22;20121;51.910;8.406;2022-09-09T09:56:02;22.10;98.40
33815;DHT22;20121;51.910;8.406;2022-09-09T09:58:32;21.90;98.70
33815;DHT22;20121;51.910;8.406;2022-09-09T10:01:00;21.70;99.00
33815;DHT22;20121;51.910;8.406;2022-09-09T10:03:27;21.80;99.20
33815;DHT22;20121;51.910;8.406;2022-09-09T10:05:54;21.90;98.70
33815;DHT22;20121;51.910;8.406;2022-09-09T10:08:22;21.90;98.90
33815;DHT22;20121;51.910;8.406;2022-09-09T10:11:26;22.10;98.50
33815;DHT22;20121;51.910;8.406;2022-09-09T10:14:36;22.00;98.20
33815;DHT22;20121;51.910;8.406;2022-09-09T10:19:31;22.20;97.70
33815;DHT22;20121;51.910;8.406;2022-09-09T10:32:57;23.20;96.30
33815;DHT22;20121;51.910;8.406;2022-09-09T10:38:40;22.70;96.50
33815;DHT22;20121;51.910;8.406;2022-09-09T10:41:20;22.70;97.00
33815;DHT22;20121;51.910;8.406;2022-09-09T10:46:52;23.10;97.10
33815;DHT22;20121;51.910;8.406;2022-09-09T10:52:24;23.40;98.40
33815;DHT22;20121;51.910;8.406;2022-09-09T10:57:47;23.20;97.00
33815;DHT22;20121;51.910;8.406;2022-09-09T11:00:24;23.30;99.90
33815;DHT22;20121;51.910;8.406;2022-09-09T11:03:02;22.90;97.50
33815;DHT22;20121;51.910;8.406;2022-09-09T11:05:42;22.70;97.60
33815;DHT22;20121;51.910;8.406;2022-09-09T11:08:20;22.70;98.10
33815;DHT22;20121;51.910;8.406;2022-09-09T11:11:04;22.70;97.60
33815;DHT22;20121;51.910;8.406;2022-09-09T11:13:52;22.50;97.60
33815;DHT22;20121;51.910;8.406;2022-09-09T11:18:58;22.70;98.10
33815;DHT22;20121;51.910;8.406;2022-09-09T11:21:31;22.80;98.10
33815;DHT22;20121;51.910;8.406;2022-09-09T11:24:10;22.80;97.60
33815;DHT22;20121;51.910;8.406;2022-09-09T11:26:45;22.90;98.00
33815;DHT22;20121;51.910;8.406;2022-09-09T11:35:42;22.50;99.90
33815;DHT22;20121;51.910;8.406;2022-09-09T11:38:47;22.30;99.90
33815;DHT22;20121;51.910;8.406;2022-09-09T11:41:15;22.00;99.90
33815;DHT22;20121;51.910;8.406;2022-09-09T11:46:13;21.90;99.90
33815;DHT22;20121;51.910;8.406;2022-09-09T11:49:03;22.10;99.90
33815;DHT22;20121;51.910;8.406;2022-09-09T11:51:31;22.20;99.90
33815;DHT22;20121;51.910;8.406;2022-09-09T11:56:46;22.50;99.90
33815;DHT22;20121;51.910;8.406;2022-09-09T11:59:30;22.80;99.90
33815;DHT22;20121;51.910;8.406;2022-09-09T12:04:38;23.20;99.90
33815;DHT22;20121;51.910;8.406;2022-09-09T12:09:46;23.20;98.40
33815;DHT22;20121;51.910;8.406;2022-09-09T12:15:01;23.20;99.00
33815;DHT22;20121;51.910;8.406;2022-09-09T12:17:29;23.30;99.50
33815;DHT22;20121;51.910;8.406;2022-09-09T12:25:46;23.50;99.90
33815;DHT22;20121;51.910;8.406;2022-09-09T12:31:09;23.90;99.90
33815;DHT22;20121;51.910;8.406;2022-09-09T12:33:38;23.80;99.90
33815;DHT22;20121;51.910;8.406;2022-09-09T12:36:12;23.60;99.90
33815;DHT22;20121;51.910;8.406;2022-09-09T12:48:39;23.60;99.90
33815;DHT22;20121;51.910;8.406;2022-09-09T12:53:44;23.40;91.70
33815;DHT22;20121;51.910;8.406;2022-09-09T12:56:19;23.30;92.40
33815;DHT22;20121;51.910;8.406;2022-09-09T12:58:48;23.20;91.90
33815;DHT22;20121;51.910;8.406;2022-09-09T13:03:49;22.90;90.80
33815;DHT22;20121;51.910;8.406;2022-09-09T13:06:24;22.80;92.10
33815;DHT22;20121;51.910;8.406;2022-09-09T13:08:51;22.60;92.40
33815;DHT22;20121;51.910;8.406;2022-09-09T13:11:29;22.50;93.10
33815;DHT22;20121;51.910;8.406;2022-09-09T13:13:57;22.40;93.80
33815;DHT22;20121;51.910;8.406;2022-09-09T13:16:34;22.40;93.80
33815;DHT22;20121;51.910;8.406;2022-09-09T13:19:02;22.70;93.60
33815;DHT22;20121;51.910;8.406;2022-09-09T13:21:36;23.00;92.70
33815;DHT22;20121;51.910;8.406;2022-09-09T13:24:05;23.10;91.60
33815;DHT22;20121;51.910;8.406;2022-09-09T13:26:34;23.00;91.30
33815;DHT22;20121;51.910;8.406;2022-09-09T13:29:17;23.00;90.90
33815;DHT22;20121;51.910;8.406;2022-09-09T13:31:44;22.90;91.40
33815;DHT22;20121;51.910;8.406;2022-09-09T13:34:35;22.90;91.50
33815;DHT22;20121;51.910;8.406;2022-09-09T13:37:03;22.90;91.60
33815;DHT22;20121;51.910;8.406;2022-09-09T13:39:33;22.90;91.40
33815;DHT22;20121;51.910;8.406;2022-09-09T13:42:00;23.00;91.70
33815;DHT22;20121;51.910;8.406;2022-09-09T13:44:38;23.00;91.70
33815;DHT22;20121;51.910;8.406;2022-09-09T13:47:21;23.00;91.40
33815;DHT22;20121;51.910;8.406;2022-09-09T13:49:48;23.00;91.70
33815;DHT22;20121;51.910;8.406;2022-09-09T13:52:18;23.00;91.20
33815;DHT22;20121;51.910;8.406;2022-09-09T13:54:48;23.00;91.60
33815;DHT22;20121;51.910;8.406;2022-09-09T13:57:20;23.00;99.90
33815;DHT22;20121;51.910;8.406;2022-09-09T13:59:46;22.80;96.50
33815;DHT22;20121;51.910;8.406;2022-09-09T14:02:12;23.10;91.30
33815;DHT22;20121;51.910;8.406;2022-09-09T14:04:38;23.00;91.30
33815;DHT22;20121;51.910;8.406;2022-09-09T14:07:12;22.80;90.50
33815;DHT22;20121;51.910;8.406;2022-09-09T14:09:39;22.80;90.80
33815;DHT22;20121;51.910;8.406;2022-09-09T14:12:06;22.70;91.00
33815;DHT22;20121;51.910;8.406;2022-09-09T14:14:34;22.60;91.20
33815;DHT22;20121;51.910;8.406;2022-09-09T14:17:00;22.50;90.80
33815;DHT22;20121;51.910;8.406;2022-09-09T14:19:25;22.40;90.50
33815;DHT22;20121;51.910;8.406;2022-09-09T14:21:51;22.30;90.70
33815;DHT22;20121;51.910;8.406;2022-09-09T14:24:17;22.20;91.20
33815;DHT22;20121;51.910;8.406;2022-09-09T14:26:43;22.10;90.90
33815;DHT22;20121;51.910;8.406;2022-09-09T14:29:08;22.10;90.90
33815;DHT22;20121;51.910;8.406;2022-09-09T14:31:34;22.00;91.40
33815;DHT22;20121;51.910;8.406;2022-09-09T14:33:59;22.00;91.00
33815;DHT22;20121;51.910;8.406;2022-09-09T14:36:25;21.90;91.10
33815;DHT22;20121;51.910;8.406;2022-09-09T14:38:51;21.90;91.20
33815;DHT22;20121;51.910;8.406;2022-09-09T14:41:18;21.80;91.70
33815;DHT22;20121;51.910;8.406;2022-09-09T14:43:45;21.80;91.60
33815;DHT22;20121;51.910;8.406;2022-09-09T14:46:16;21.80;92.30
33815;DHT22;20121;51.910;8.406;2022-09-09T14:48:42;21.80;93.40
33815;DHT22;20121;51.910;8.406;2022-09-09T14:51:15;21.80;93.90
33815;DHT22;20121;51.910;8.406;2022-09-09T14:53:41;21.80;93.90
33815;DHT22;20121;51.910;8.406;2022-09-09T14:56:13;22.10;99.50
33815;DHT22;20121;51.910;8.406;2022-09-09T14:58:39;21.80;93.70
33815;DHT22;20121;51.910;8.406;2022-09-09T15:01:07;21.70;93.80
33815;DHT22;20121;51.910;8.406;2022-09-09T15:03:33;21.70;93.30
33815;DHT22;20121;51.910;8.406;2022-09-09T15:06:13;21.60;93.40
33815;DHT22;20121;51.910;8.406;2022-09-09T15:08:41;21.60;93.10
33815;DHT22;20121;51.910;8.406;2022-09-09T15:11:08;21.50;93.40
33815;DHT22;20121;51.910;8.406;2022-09-09T15:13:34;21.50;93.70
33815;DHT22;20121;51.910;8.406;2022-09-09T15:18:34;21.30;93.20
33815;DHT22;20121;51.910;8.406;2022-09-09T15:21:02;21.30;93.40
33815;DHT22;20121;51.910;8.406;2022-09-09T15:23:28;21.30;93.60
33815;DHT22;20121;51.910;8.406;2022-09-09T15:25:56;21.30;93.80
33815;DHT22;20121;51.910;8.406;2022-09-09T15:28:22;21.30;93.90
33815;DHT22;20121;51.910;8.406;2022-09-09T15:30:51;21.30;94.20
33815;DHT22;20121;51.910;8.406;2022-09-09T15:33:18;21.30;94.40
33815;DHT22;20121;51.910;8.406;2022-09-09T15:35:44;21.30;94.70
33815;DHT22;20121;51.910;8.406;2022-09-09T15:38:10;21.40;93.90
33815;DHT22;20121;51.910;8.406;2022-09-09T15:40:36;21.30;93.90
33815;DHT22;20121;51.910;8.406;2022-09-09T15:43:01;20.80;93.90
33815;DHT22;20121;51.910;8.406;2022-09-09T15:45:28;21.30;94.30
33815;DHT22;20121;51.910;8.406;2022-09-09T15:47:57;21.20;94.30
33815;DHT22;20121;51.910;8.406;2022-09-09T15:50:23;21.10;94.70
33815;DHT22;20121;51.910;8.406;2022-09-09T15:52:49;21.00;94.80
33815;DHT22;20121;51.910;8.406;2022-09-09T15:55:14;20.90;94.80
33815;DHT22;20121;51.910;8.406;2022-09-09T15:57:40;20.80;94.90
33815;DHT22;20121;51.910;8.406;2022-09-09T16:00:06;20.80;95.20
33815;DHT22;20121;51.910;8.406;2022-09-09T16:02:32;20.70;95.40
33815;DHT22;20121;51.910;8.406;2022-09-09T16:04:58;20.70;95.50
33815;DHT22;20121;51.910;8.406;2022-09-09T16:07:23;20.90;99.90
33815;DHT22;20121;51.910;8.406;2022-09-09T16:09:49;20.80;96.20
33815;DHT22;20121;51.910;8.406;2022-09-09T16:12:18;20.90;97.60
33815;DHT22;20121;51.910;8.406;2022-09-09T16:14:44;20.90;97.80
33815;DHT22;20121;51.910;8.406;2022-09-09T16:17:10;21.00;99.90
33815;DHT22;20121;51.910;8.406;2022-09-09T16:19:37;20.80;97.10
33815;DHT22;20121;51.910;8.406;2022-09-09T16:22:04;20.70;97.30
33815;DHT22;20121;51.910;8.406;2022-09-09T16:24:29;20.70;97.60
33815;DHT22;20121;51.910;8.406;2022-09-09T16:26:55;20.70;97.30
33815;DHT22;20121;51.910;8.406;2022-09-09T16:29:22;20.80;99.90
33815;DHT22;20121;51.910;8.406;2022-09-09T16:31:49;20.70;97.20
33815;DHT22;20121;51.910;8.406;2022-09-09T16:34:16;20.60;97.30
33815;DHT22;20121;51.910;8.406;2022-09-09T16:36:43;20.50;97.20
33815;DHT22;20121;51.910;8.406;2022-09-09T16:39:12;20.40;97.10
33815;DHT22;20121;51.910;8.406;2022-09-09T16:41:39;20.30;97.70
33815;DHT22;20121;51.910;8.406;2022-09-09T16:44:07;20.30;98.10
33815;DHT22;20121;51.910;8.406;2022-09-09T16:46:36;20.20;98.40
33815;DHT22;20121;51.910;8.406;2022-09-09T16:49:06;20.10;98.40
33815;DHT22;20121;51.910;8.406;2022-09-09T16:51:37;20.00;99.00
33815;DHT22;20121;51.910;8.406;2022-09-09T16:54:05;19.90;99.20
33815;DHT22;20121;51.910;8.406;2022-09-09T16:56:33;19.60;99.90
33815;DHT22;20121;51.910;8.406;2022-09-09T16:59:01;19.50;99.90
33815;DHT22;20121;51.910;8.406;2022-09-09T17:01:29;19.30;99.90
33815;DHT22;20121;51.910;8.406;2022-09-09T17:04:00;19.10;99.90
33815;DHT22;20121;51.910;8.406;2022-09-09T17:06:28;18.80;99.90
33815;DHT22;20121;51.910;8.406;2022-09-09T17:08:58;18.60;99.90
33815;DHT22;20121;51.910;8.406;2022-09-09T17:11:25;18.50;99.90
33815;DHT22;20121;51.910;8.406;2022-09-09T17:13:52;18.50;99.90
33815;DHT22;20121;51.910;8.406;2022-09-09T17:16:20;18.50;99.90
33815;DHT22;20121;51.910;8.406;2022-09-09T17:18:49;18.50;99.90
33815;DHT22;20121;51.910;8.406;2022-09-09T17:21:21;18.40;99.90
33815;DHT22;20121;51.910;8.406;2022-09-09T17:23:47;18.40;99.90
33815;DHT22;20121;51.910;8.406;2022-09-09T17:26:17;18.40;99.90
33815;DHT22;20121;51.910;8.406;2022-09-09T17:28:44;18.30;99.90
33815;DHT22;20121;51.910;8.406;2022-09-09T17:31:12;18.70;99.90
33815;DHT22;20121;51.910;8.406;2022-09-09T17:33:44;18.20;99.90
33815;DHT22;20121;51.910;8.406;2022-09-09T17:36:16;18.10;99.90
33815;DHT22;20121;51.910;8.406;2022-09-09T17:38:42;18.00;99.90
33815;DHT22;20121;51.910;8.406;2022-09-09T17:43:39;17.90;99.90
33815;DHT22;20121;51.910;8.406;2022-09-09T17:46:14;17.80;99.90
33815;DHT22;20121;51.910;8.406;2022-09-09T17:48:40;17.80;99.90
33815;DHT22;20121;51.910;8.406;2022-09-09T17:51:12;17.80;99.90
33815;DHT22;20121;51.910;8.406;2022-09-09T17:53:39;17.80;99.90
33815;DHT22;20121;51.910;8.406;2022-09-09T17:56:06;17.70;99.90
33815;DHT22;20121;51.910;8.406;2022-09-09T17:58:32;17.70;99.90
33815;DHT22;20121;51.910;8.406;2022-09-09T18:01:06;17.70;99.90
33815;DHT22;20121;51.910;8.406;2022-09-09T18:03:36;17.60;99.90
33815;DHT22;20121;51.910;8.406;2022-09-09T18:06:08;17.60;99.90
33815;DHT22;20121;51.910;8.406;2022-09-09T18:08:35;17.50;99.90